sensor_id;sensor_type;location;lat;lon;timestamp;pressure;altitude;pressure_sealevel;temperature;humidity
55351;BME280;62194;49.480;10.986;2023-01-29T00:00:05;99393.44;;;-2.30;68.57
55351;BME280;62194;49.480;10.986;2023-01-29T00:00:14;99395.53;;;-2.32;68.51
55351;BME280;62194;49.480;10.986;2023-01-29T00:00:20;99393.56;;;-2.37;68.29
55351;BME280;62194;49.480;10.986;2023-01-29T00:00:25;99389.72;;;-2.41;68.37
55351;BME280;62194;49.480;10.986;2023-01-29T00:00:31;99401.56;;;-2.37;68.78
55351;BME280;62194;49.480;10.986;2023-01-29T00:00:37;99392.41;;;-2.41;68.73
55351;BME280;62194;49.480;10.986;2023-01-29T00:00:42;99394.25;;;-2.42;68.54
55351;BME280;62194;49.480;10.986;2023-01-29T00:00:48;99391.81;;;-2.43;68.64
55351;BME280;62194;49.480;10.986;2023-01-29T00:00:53;99394.25;;;-2.42;68.43
55351;BME280;62194;49.480;10.986;2023-01-29T00:01:05;99397.16;;;-2.43;68.93
55351;BME280;62194;49.480;10.986;2023-01-29T00:01:11;99392.28;;;-2.46;69.13
55351;BME280;62194;49.480;10.986;2023-01-29T00:01:16;99392.50;;;-2.48;69.38
55351;BME280;62194;49.480;10.986;2023-01-29T00:01:21;99393.06;;;-2.46;68.92
55351;BME280;62194;49.480;10.986;2023-01-29T00:01:27;99383.22;;;-2.57;68.77
55351;BME280;62194;49.480;10.986;2023-01-29T00:01:32;99382.97;;;-2.55;68.71
55351;BME280;62194;49.480;10.986;2023-01-29T00:01:38;99404.22;;;-2.49;69.24
55351;BME280;62194;49.480;10.986;2023-01-29T00:01:43;99383.69;;;-2.60;69.05
55351;BME280;62194;49.480;10.986;2023-01-29T00:01:48;99405.28;;;-2.50;69.18
55351;BME280;62194;49.480;10.986;2023-01-29T00:01:54;99395.88;;;-2.52;69.46
55351;BME280;62194;49.480;10.986;2023-01-29T00:02:00;99383.69;;;-2.60;69.51
55351;BME280;62194;49.480;10.986;2023-01-29T00:02:05;99396.56;;;-2.57;69.60
55351;BME280;62194;49.480;10.986;2023-01-29T00:02:10;99396.09;;;-2.54;69.62
55351;BME280;62194;49.480;10.986;2023-01-29T00:02:16;99396.91;;;-2.53;69.63
55351;BME280;62194;49.480;10.986;2023-01-29T00:02:21;99403.06;;;-2.53;69.96
55351;BME280;62194;49.480;10.986;2023-01-29T00:02:26;99394.94;;;-2.58;69.77
55351;BME280;62194;49.480;10.986;2023-01-29T00:02:31;99394.69;;;-2.56;69.59
55351;BME280;62194;49.480;10.986;2023-01-29T00:02:37;99396.91;;;-2.53;69.67
55351;BME280;62194;49.480;10.986;2023-01-29T00:02:42;99385.06;;;-2.57;69.65
55351;BME280;62194;49.480;10.986;2023-01-29T00:02:47;99380.06;;;-2.66;69.81
55351;BME280;62194;49.480;10.986;2023-01-29T00:02:53;99390.41;;;-2.57;69.76
55351;BME280;62194;49.480;10.986;2023-01-29T00:02:58;99397.97;;;-2.54;69.61
55351;BME280;62194;49.480;10.986;2023-01-29T00:03:04;99397.50;;;-2.51;69.66
55351;BME280;62194;49.480;10.986;2023-01-29T00:03:09;99403.19;;;-2.48;69.61
55351;BME280;62194;49.480;10.986;2023-01-29T00:03:15;99394.38;;;-2.48;69.53
55351;BME280;62194;49.480;10.986;2023-01-29T00:03:20;99386.59;;;-2.50;69.76
55351;BME280;62194;49.480;10.986;2023-01-29T00:03:25;99389.59;;;-2.46;69.41
55351;BME280;62194;49.480;10.986;2023-01-29T00:03:31;99387.38;;;-2.49;69.42
55351;BME280;62194;49.480;10.986;2023-01-29T00:03:37;99379.28;;;-2.54;69.52
55351;BME280;62194;49.480;10.986;2023-01-29T00:03:42;99387.16;;;-2.48;69.78
55351;BME280;62194;49.480;10.986;2023-01-29T00:03:50;99387.97;;;-2.47;70.04
55351;BME280;62194;49.480;10.986;2023-01-29T00:03:55;99397.97;;;-2.43;69.76
55351;BME280;62194;49.480;10.986;2023-01-29T00:04:01;99381.69;;;-2.53;69.58
55351;BME280;62194;49.480;10.986;2023-01-29T00:04:06;99400.88;;;-2.44;69.67
55351;BME280;62194;49.480;10.986;2023-01-29T00:04:11;99398.78;;;-2.42;69.41
55351;BME280;62194;49.480;10.986;2023-01-29T00:04:17;99397.97;;;-2.43;69.48
55351;BME280;62194;49.480;10.986;2023-01-29T00:04:23;99400.41;;;-2.41;69.56
55351;BME280;62194;49.480;10.986;2023-01-29T00:04:28;99402.03;;;-2.40;69.64
55351;BME280;62194;49.480;10.986;2023-01-29T00:04:34;99398.19;;;-2.44;69.66
55351;BME280;62194;49.480;10.986;2023-01-29T00:04:39;99404.09;;;-2.42;69.86
55351;BME280;62194;49.480;10.986;2023-01-29T00:04:44;99402.84;;;-2.40;69.60
55351;BME280;62194;49.480;10.986;2023-01-29T00:04:50;99404.09;;;-2.42;69.47
55351;BME280;62194;49.480;10.986;2023-01-29T00:04:55;99409.84;;;-2.39;69.52
55351;BME280;62194;49.480;10.986;2023-01-29T00:05:00;99395.53;;;-2.44;69.60
55351;BME280;62194;49.480;10.986;2023-01-29T00:05:06;99401.81;;;-2.39;69.81
55351;BME280;62194;49.480;10.986;2023-01-29T00:05:12;99398.91;;;-2.37;69.70
55351;BME280;62194;49.480;10.986;2023-01-29T00:05:17;99403.31;;;-2.31;69.52
55351;BME280;62194;49.480;10.986;2023-01-29T00:05:23;99401.81;;;-2.27;69.26
55351;BME280;62194;49.480;10.986;2023-01-29T00:05:29;99400.53;;;-2.24;69.08
55351;BME280;62194;49.480;10.986;2023-01-29T00:05:34;99393.56;;;-2.25;68.76
55351;BME280;62194;49.480;10.986;2023-01-29T00:05:39;99402.84;;;-2.28;68.61
55351;BME280;62194;49.480;10.986;2023-01-29T00:05:45;99391.22;;;-2.33;68.43
55351;BME280;62194;49.480;10.986;2023-01-29T00:05:50;99400.19;;;-2.28;68.77
55351;BME280;62194;49.480;10.986;2023-01-29T00:05:55;99402.59;;;-2.26;68.96
55351;BME280;62194;49.480;10.986;2023-01-29T00:06:04;99393.69;;;-2.32;69.02
55351;BME280;62194;49.480;10.986;2023-01-29T00:06:11;99399.38;;;-2.28;69.33
55351;BME280;62194;49.480;10.986;2023-01-29T00:06:17;99390.88;;;-2.37;69.59
55351;BME280;62194;49.480;10.986;2023-01-29T00:06:22;99405.53;;;-2.28;69.26
55351;BME280;62194;49.480;10.986;2023-01-29T00:06:27;99387.63;;;-2.39;69.21
55351;BME280;62194;49.480;10.986;2023-01-29T00:06:33;99399.84;;;-2.31;69.12
55351;BME280;62194;49.480;10.986;2023-01-29T00:06:38;99385.78;;;-2.39;69.30
55351;BME280;62194;49.480;10.986;2023-01-29T00:06:44;99407.59;;;-2.30;69.14
55351;BME280;62194;49.480;10.986;2023-01-29T00:06:49;99396.69;;;-2.28;69.59
55351;BME280;62194;49.480;10.986;2023-01-29T00:06:55;99405.63;;;-2.23;69.16
55351;BME280;62194;49.480;10.986;2023-01-29T00:07:00;99393.22;;;-2.29;69.12
55351;BME280;62194;49.480;10.986;2023-01-29T00:07:05;99391.91;;;-2.26;68.96
55351;BME280;62194;49.480;10.986;2023-01-29T00:07:10;99392.50;;;-2.24;69.05
55351;BME280;62194;49.480;10.986;2023-01-29T00:07:16;99407.03;;;-2.20;68.70
55351;BME280;62194;49.480;10.986;2023-01-29T00:07:21;99396.25;;;-2.25;68.92
55351;BME280;62194;49.480;10.986;2023-01-29T00:07:26;99401.59;;;-2.25;68.90
55351;BME280;62194;49.480;10.986;2023-01-29T00:07:32;99398.44;;;-2.22;69.20
55351;BME280;62194;49.480;10.986;2023-01-29T00:07:37;99393.22;;;-2.29;69.01
55351;BME280;62194;49.480;10.986;2023-01-29T00:07:42;99391.38;;;-2.28;68.89
55351;BME280;62194;49.480;10.986;2023-01-29T00:07:48;99392.38;;;-2.29;69.09
55351;BME280;62194;49.480;10.986;2023-01-29T00:07:54;99402.41;;;-2.25;68.61
55351;BME280;62194;49.480;10.986;2023-01-29T00:07:59;99402.72;;;-2.21;68.44
55351;BME280;62194;49.480;10.986;2023-01-29T00:08:06;99406.22;;;-2.21;68.51
55351;BME280;62194;49.480;10.986;2023-01-29T00:08:11;99395.41;;;-2.26;68.38
55351;BME280;62194;49.480;10.986;2023-01-29T00:08:16;99394.13;;;-2.23;68.44
55351;BME280;62194;49.480;10.986;2023-01-29T00:08:21;99400.53;;;-2.24;68.31
55351;BME280;62194;49.480;10.986;2023-01-29T00:08:27;99397.59;;;-2.23;68.50
55351;BME280;62194;49.480;10.986;2023-01-29T00:08:36;99391.56;;;-2.30;68.56
55351;BME280;62194;49.480;10.986;2023-01-29T00:08:41;99398.44;;;-2.22;68.39
55351;BME280;62194;49.480;10.986;2023-01-29T00:08:47;99397.84;;;-2.24;68.48
55351;BME280;62194;49.480;10.986;2023-01-29T00:08:52;99404.59;;;-2.22;68.46
55351;BME280;62194;49.480;10.986;2023-01-29T00:08:57;99395.78;;;-2.22;68.51
55351;BME280;62194;49.480;10.986;2023-01-29T00:09:03;99397.59;;;-2.23;68.32
55351;BME280;62194;49.480;10.986;2023-01-29T00:09:09;99395.19;;;-2.24;68.27
55351;BME280;62194;49.480;10.986;2023-01-29T00:09:15;99393.78;;;-2.27;68.21
55351;BME280;62194;49.480;10.986;2023-01-29T00:09:20;99398.66;;;-2.24;68.33
55351;BME280;62194;49.480;10.986;2023-01-29T00:09:26;99396.25;;;-2.25;68.49
55351;BME280;62194;49.480;10.986;2023-01-29T00:09:32;99388.69;;;-2.28;68.58
55351;BME280;62194;49.480;10.986;2023-01-29T00:09:37;99400.53;;;-2.24;68.61
55351;BME280;62194;49.480;10.986;2023-01-29T00:09:43;99388.69;;;-2.28;68.62
55351;BME280;62194;49.480;10.986;2023-01-29T00:09:48;99396.59;;;-2.22;68.63
55351;BME280;62194;49.480;10.986;2023-01-29T00:09:53;99397.06;;;-2.25;68.81
55351;BME280;62194;49.480;10.986;2023-01-29T00:09:58;99384.72;;;-2.26;68.52
55351;BME280;62194;49.480;10.986;2023-01-29T00:10:07;99379.03;;;-2.29;68.74
55351;BME280;62194;49.480;10.986;2023-01-29T00:10:12;99398.78;;;-2.19;68.49
55351;BME280;62194;49.480;10.986;2023-01-29T00:10:18;99397.94;;;-2.19;68.60
55351;BME280;62194;49.480;10.986;2023-01-29T00:10:24;99404.13;;;-2.19;68.85
55351;BME280;62194;49.480;10.986;2023-01-29T00:10:29;99398.53;;;-2.17;68.96
55351;BME280;62194;49.480;10.986;2023-01-29T00:10:35;99390.78;;;-2.19;68.87
55351;BME280;62194;49.480;10.986;2023-01-29T00:10:40;99401.56;;;-2.14;68.83
55351;BME280;62194;49.480;10.986;2023-01-29T00:10:46;99397.28;;;-2.15;68.90
55351;BME280;62194;49.480;10.986;2023-01-29T00:10:51;99375.91;;;-2.26;68.41
55351;BME280;62194;49.480;10.986;2023-01-29T00:11:03;99401.56;;;-2.14;69.17
55351;BME280;62194;49.480;10.986;2023-01-29T00:11:09;99390.44;;;-2.22;68.46
55351;BME280;62194;49.480;10.986;2023-01-29T00:11:14;99391.59;;;-2.18;68.49
55351;BME280;62194;49.480;10.986;2023-01-29T00:11:20;99384.25;;;-2.23;68.15
55351;BME280;62194;49.480;10.986;2023-01-29T00:11:26;99391.81;;;-2.20;68.19
55351;BME280;62194;49.480;10.986;2023-01-29T00:11:31;99382.75;;;-2.30;68.26
55351;BME280;62194;49.480;10.986;2023-01-29T00:11:36;99399.47;;;-2.23;68.26
55351;BME280;62194;49.480;10.986;2023-01-29T00:11:42;99391.25;;;-2.22;68.88
55351;BME280;62194;49.480;10.986;2023-01-29T00:11:47;99385.44;;;-2.30;68.89
55351;BME280;62194;49.480;10.986;2023-01-29T00:11:53;99393.56;;;-2.25;68.80
55351;BME280;62194;49.480;10.986;2023-01-29T00:11:58;99396.81;;;-2.23;68.52
55351;BME280;62194;49.480;10.986;2023-01-29T00:12:03;99394.38;;;-2.25;68.48
55351;BME280;62194;49.480;10.986;2023-01-29T00:12:09;99402.41;;;-2.25;68.65
55351;BME280;62194;49.480;10.986;2023-01-29T00:12:14;99404.25;;;-2.25;69.32
55351;BME280;62194;49.480;10.986;2023-01-29T00:12:19;99399.72;;;-2.25;69.04
55351;BME280;62194;49.480;10.986;2023-01-29T00:12:25;99388.56;;;-2.33;69.00
55351;BME280;62194;49.480;10.986;2023-01-29T00:12:30;99389.38;;;-2.33;68.88
55351;BME280;62194;49.480;10.986;2023-01-29T00:12:35;99399.03;;;-2.32;69.12
55351;BME280;62194;49.480;10.986;2023-01-29T00:12:41;99402.03;;;-2.28;68.71
55351;BME280;62194;49.480;10.986;2023-01-29T00:12:46;99395.06;;;-2.29;68.92
55351;BME280;62194;49.480;10.986;2023-01-29T00:12:51;99395.91;;;-2.29;68.95
55351;BME280;62194;49.480;10.986;2023-01-29T00:12:57;99387.97;;;-2.36;69.04
55351;BME280;62194;49.480;10.986;2023-01-29T00:13:02;99388.56;;;-2.33;69.16
55351;BME280;62194;49.480;10.986;2023-01-29T00:13:07;99392.03;;;-2.33;69.36
55351;BME280;62194;49.480;10.986;2023-01-29T00:13:12;99405.53;;;-2.28;69.03
55351;BME280;62194;49.480;10.986;2023-01-29T00:13:18;99380.91;;;-2.42;68.53
55351;BME280;62194;49.480;10.986;2023-01-29T00:13:23;99391.47;;;-2.35;68.72
55351;BME280;62194;49.480;10.986;2023-01-29T00:13:28;99386.59;;;-2.38;68.43
55351;BME280;62194;49.480;10.986;2023-01-29T00:13:34;99397.16;;;-2.31;68.56
55351;BME280;62194;49.480;10.986;2023-01-29T00:13:39;99401.69;;;-2.32;68.65
55351;BME280;62194;49.480;10.986;2023-01-29T00:13:45;99400.84;;;-2.32;68.28
55351;BME280;62194;49.480;10.986;2023-01-29T00:13:51;99404.38;;;-2.32;68.45
55351;BME280;62194;49.480;10.986;2023-01-29T00:13:57;99399.84;;;-2.31;68.38
55351;BME280;62194;49.480;10.986;2023-01-29T00:14:02;99397.38;;;-2.33;68.29
55351;BME280;62194;49.480;10.986;2023-01-29T00:14:07;99390.06;;;-2.38;68.50
55351;BME280;62194;49.480;10.986;2023-01-29T00:14:13;99395.63;;;-2.39;68.50
55351;BME280;62194;49.480;10.986;2023-01-29T00:14:19;99398.44;;;-2.34;68.60
55351;BME280;62194;49.480;10.986;2023-01-29T00:14:24;99398.44;;;-2.34;68.52
55351;BME280;62194;49.480;10.986;2023-01-29T00:14:31;99388.09;;;-2.42;68.90
55351;BME280;62194;49.480;10.986;2023-01-29T00:14:36;99404.00;;;-2.36;69.11
55351;BME280;62194;49.480;10.986;2023-01-29T00:14:42;99401.09;;;-2.34;68.92
55351;BME280;62194;49.480;10.986;2023-01-29T00:14:47;99404.00;;;-2.36;68.89
55351;BME280;62194;49.480;10.986;2023-01-29T00:14:52;99401.81;;;-2.39;69.01
55351;BME280;62194;49.480;10.986;2023-01-29T00:14:58;99401.09;;;-2.34;69.33
55351;BME280;62194;49.480;10.986;2023-01-29T00:15:07;99393.56;;;-2.37;69.19
55351;BME280;62194;49.480;10.986;2023-01-29T00:15:13;99398.31;;;-2.39;68.88
55351;BME280;62194;49.480;10.986;2023-01-29T00:15:19;99401.09;;;-2.34;69.15
55351;BME280;62194;49.480;10.986;2023-01-29T00:15:24;99392.16;;;-2.40;68.96
55351;BME280;62194;49.480;10.986;2023-01-29T00:15:30;99399.94;;;-2.38;68.78
55351;BME280;62194;49.480;10.986;2023-01-29T00:15:35;99397.75;;;-2.41;68.73
55351;BME280;62194;49.480;10.986;2023-01-29T00:15:41;99392.88;;;-2.44;68.93
55351;BME280;62194;49.480;10.986;2023-01-29T00:15:53;99393.22;;;-2.41;69.02
55351;BME280;62194;49.480;10.986;2023-01-29T00:16:00;99402.72;;;-2.33;69.09
55351;BME280;62194;49.480;10.986;2023-01-29T00:16:05;99398.91;;;-2.37;68.76
55351;BME280;62194;49.480;10.986;2023-01-29T00:16:11;99399.50;;;-2.35;68.64
55351;BME280;62194;49.480;10.986;2023-01-29T00:16:19;99400.31;;;-2.34;68.85
55351;BME280;62194;49.480;10.986;2023-01-29T00:16:25;99406.78;;;-2.30;68.70
55351;BME280;62194;49.480;10.986;2023-01-29T00:16:30;99394.63;;;-2.38;68.69
55351;BME280;62194;49.480;10.986;2023-01-29T00:16:35;99407.25;;;-2.33;68.79
55351;BME280;62194;49.480;10.986;2023-01-29T00:16:41;99410.75;;;-2.33;68.78
55351;BME280;62194;49.480;10.986;2023-01-29T00:16:46;99405.41;;;-2.33;68.88
55351;BME280;62194;49.480;10.986;2023-01-29T00:16:52;99401.91;;;-2.33;68.74
55351;BME280;62194;49.480;10.986;2023-01-29T00:16:57;99407.72;;;-2.37;68.76
55351;BME280;62194;49.480;10.986;2023-01-29T00:17:03;99409.34;;;-2.36;68.77
55351;BME280;62194;49.480;10.986;2023-01-29T00:17:08;99403.19;;;-2.36;68.70
55351;BME280;62194;49.480;10.986;2023-01-29T00:17:14;99405.06;;;-2.37;68.92
55351;BME280;62194;49.480;10.986;2023-01-29T00:17:19;99408.06;;;-2.33;68.67
55351;BME280;62194;49.480;10.986;2023-01-29T00:17:24;99410.75;;;-2.33;68.74
55351;BME280;62194;49.480;10.986;2023-01-29T00:17:30;99399.94;;;-2.38;68.91
55351;BME280;62194;49.480;10.986;2023-01-29T00:17:35;99407.72;;;-2.37;69.11
55351;BME280;62194;49.480;10.986;2023-01-29T00:17:40;99400.97;;;-2.39;68.88
55351;BME280;62194;49.480;10.986;2023-01-29T00:17:45;99403.19;;;-2.36;68.86
55351;BME280;62194;49.480;10.986;2023-01-29T00:17:51;99405.84;;;-2.36;68.92
55351;BME280;62194;49.480;10.986;2023-01-29T00:17:56;99400.97;;;-2.39;68.89
55351;BME280;62194;49.480;10.986;2023-01-29T00:18:02;99407.63;;;-2.42;68.76
55351;BME280;62194;49.480;10.986;2023-01-29T00:18:07;99400.63;;;-2.43;68.56
55351;BME280;62194;49.480;10.986;2023-01-29T00:18:13;99384.16;;;-2.51;68.68
55351;BME280;62194;49.480;10.986;2023-01-29T00:18:18;99397.97;;;-2.43;68.77
55351;BME280;62194;49.480;10.986;2023-01-29T00:18:24;99405.41;;;-2.33;68.44
55351;BME280;62194;49.480;10.986;2023-01-29T00:18:29;99407.38;;;-2.28;68.55
55351;BME280;62194;49.480;10.986;2023-01-29T00:18:39;99396.91;;;-2.30;69.29
55351;BME280;62194;49.480;10.986;2023-01-29T00:18:45;99405.75;;;-2.29;68.47
55351;BME280;62194;49.480;10.986;2023-01-29T00:18:50;99380.31;;;-2.44;68.45
55351;BME280;62194;49.480;10.986;2023-01-29T00:18:56;99405.19;;;-2.31;68.38
55351;BME280;62194;49.480;10.986;2023-01-29T00:19:02;99399.72;;;-2.37;68.55
55351;BME280;62194;49.480;10.986;2023-01-29T00:19:07;99395.06;;;-2.41;68.47
55351;BME280;62194;49.480;10.986;2023-01-29T00:19:12;99394.25;;;-2.42;68.46
55351;BME280;62194;49.480;10.986;2023-01-29T00:19:18;99397.84;;;-2.36;68.54
55351;BME280;62194;49.480;10.986;2023-01-29T00:19:23;99398.44;;;-2.34;68.24
55351;BME280;62194;49.480;10.986;2023-01-29T00:19:28;99407.94;;;-2.26;68.30
55351;BME280;62194;49.480;10.986;2023-01-29T00:19:34;99410.88;;;-2.28;68.26
55351;BME280;62194;49.480;10.986;2023-01-29T00:19:40;99409.47;;;-2.30;68.04
55351;BME280;62194;49.480;10.986;2023-01-29T00:19:45;99404.38;;;-2.32;67.87
55351;BME280;62194;49.480;10.986;2023-01-29T00:19:51;99403.53;;;-2.32;67.99
55351;BME280;62194;49.480;10.986;2023-01-29T00:19:56;99397.84;;;-2.36;68.17
55351;BME280;62194;49.480;10.986;2023-01-29T00:20:01;99394.03;;;-2.40;67.83
55351;BME280;62194;49.480;10.986;2023-01-29T00:20:07;99403.19;;;-2.36;67.83
55351;BME280;62194;49.480;10.986;2023-01-29T00:20:13;99404.09;;;-2.42;67.96
55351;BME280;62194;49.480;10.986;2023-01-29T00:20:18;99406.09;;;-2.49;67.64
55351;BME280;62194;49.480;10.986;2023-01-29T00:20:23;99398.66;;;-2.47;68.18
55351;BME280;62194;49.480;10.986;2023-01-29T00:20:29;99399.84;;;-2.55;68.19
55351;BME280;62194;49.480;10.986;2023-01-29T00:20:34;99407.13;;;-2.50;68.11
55351;BME280;62194;49.480;10.986;2023-01-29T00:20:44;99394.81;;;-2.63;68.35
55351;BME280;62194;49.480;10.986;2023-01-29T00:20:50;99407.00;;;-2.55;68.22
55351;BME280;62194;49.480;10.986;2023-01-29T00:20:55;99407.00;;;-2.55;68.23
55351;BME280;62194;49.480;10.986;2023-01-29T00:21:01;99405.63;;;-2.58;68.34
55351;BME280;62194;49.480;10.986;2023-01-29T00:21:20;99406.91;;;-2.61;68.35
55351;BME280;62194;49.480;10.986;2023-01-29T00:21:26;99404.22;;;-2.61;68.44
55351;BME280;62194;49.480;10.986;2023-01-29T00:21:31;99406.09;;;-2.61;68.53
55351;BME280;62194;49.480;10.986;2023-01-29T00:21:37;99405.03;;;-2.60;68.61
55351;BME280;62194;49.480;10.986;2023-01-29T00:21:43;99393.53;;;-2.61;69.06
55351;BME280;62194;49.480;10.986;2023-01-29T00:21:48;99380.88;;;-2.65;68.90
55351;BME280;62194;49.480;10.986;2023-01-29T00:21:53;99412.22;;;-2.49;68.72
55351;BME280;62194;49.480;10.986;2023-01-29T00:21:59;99397.72;;;-2.53;68.39
55351;BME280;62194;49.480;10.986;2023-01-29T00:22:04;99408.53;;;-2.48;68.46
55351;BME280;62194;49.480;10.986;2023-01-29T00:22:09;99401.78;;;-2.50;68.48
55351;BME280;62194;49.480;10.986;2023-01-29T00:22:15;99399.00;;;-2.55;68.83
55351;BME280;62194;49.480;10.986;2023-01-29T00:22:20;99398.53;;;-2.52;68.76
55351;BME280;62194;49.480;10.986;2023-01-29T00:22:29;99400.19;;;-2.51;68.75
55351;BME280;62194;49.480;10.986;2023-01-29T00:22:34;99390.53;;;-2.52;68.51
55351;BME280;62194;49.480;10.986;2023-01-29T00:22:40;99398.41;;;-2.46;68.50
55351;BME280;62194;49.480;10.986;2023-01-29T00:22:45;99397.63;;;-2.46;68.60
55351;BME280;62194;49.480;10.986;2023-01-29T00:22:51;99397.41;;;-2.45;68.63
55351;BME280;62194;49.480;10.986;2023-01-29T00:22:56;99400.88;;;-2.44;68.56
55351;BME280;62194;49.480;10.986;2023-01-29T00:23:01;99401.69;;;-2.44;68.70
55351;BME280;62194;49.480;10.986;2023-01-29T00:23:07;99379.84;;;-2.52;68.59
55351;BME280;62194;49.480;10.986;2023-01-29T00:23:12;99411.31;;;-2.43;68.59
55351;BME280;62194;49.480;10.986;2023-01-29T00:23:18;99383.44;;;-2.59;68.43
55351;BME280;62194;49.480;10.986;2023-01-29T00:23:23;99381.34;;;-2.56;68.30
55351;BME280;62194;49.480;10.986;2023-01-29T00:23:29;99407.38;;;-2.40;68.30
55351;BME280;62194;49.480;10.986;2023-01-29T00:23:34;99399.59;;;-2.42;68.25
55351;BME280;62194;49.480;10.986;2023-01-29T00:23:40;99408.09;;;-2.45;68.07
55351;BME280;62194;49.480;10.986;2023-01-29T00:23:46;99384.13;;;-2.63;68.51
55351;BME280;62194;49.480;10.986;2023-01-29T00:23:53;99412.03;;;-2.47;68.40
55351;BME280;62194;49.480;10.986;2023-01-29T00:23:59;99408.19;;;-2.51;68.20
55351;BME280;62194;49.480;10.986;2023-01-29T00:24:04;99404.47;;;-2.50;68.31
55351;BME280;62194;49.480;10.986;2023-01-29T00:24:10;99399.34;;;-2.52;68.34
55351;BME280;62194;49.480;10.986;2023-01-29T00:24:15;99394.13;;;-2.59;68.49
55351;BME280;62194;49.480;10.986;2023-01-29T00:24:21;99390.53;;;-2.64;68.45
55351;BME280;62194;49.480;10.986;2023-01-29T00:24:26;99390.63;;;-2.59;68.44
55351;BME280;62194;49.480;10.986;2023-01-29T00:24:31;99405.97;;;-2.54;68.35
55351;BME280;62194;49.480;10.986;2023-01-29T00:24:37;99392.75;;;-2.61;68.41
55351;BME280;62194;49.480;10.986;2023-01-29T00:24:42;99392.59;;;-2.66;68.82
55351;BME280;62194;49.480;10.986;2023-01-29T00:24:48;99399.00;;;-2.55;68.48
55351;BME280;62194;49.480;10.986;2023-01-29T00:24:53;99390.53;;;-2.64;68.97
55351;BME280;62194;49.480;10.986;2023-01-29T00:24:59;99402.72;;;-2.56;68.63
55351;BME280;62194;49.480;10.986;2023-01-29T00:25:04;99391.00;;;-2.67;68.84
55351;BME280;62194;49.480;10.986;2023-01-29T00:25:10;99407.00;;;-2.55;68.76
55351;BME280;62194;49.480;10.986;2023-01-29T00:25:16;99401.09;;;-2.57;68.78
55351;BME280;62194;49.480;10.986;2023-01-29T00:25:21;99411.53;;;-2.56;68.74
55351;BME280;62194;49.480;10.986;2023-01-29T00:25:26;99388.06;;;-2.66;68.65
55351;BME280;62194;49.480;10.986;2023-01-29T00:25:32;99389.34;;;-2.68;68.80
55351;BME280;62194;49.480;10.986;2023-01-29T00:25:37;99393.06;;;-2.69;68.89
55351;BME280;62194;49.480;10.986;2023-01-29T00:25:44;99391.19;;;-2.69;68.78
55351;BME280;62194;49.480;10.986;2023-01-29T00:25:49;99389.59;;;-2.70;69.00
55351;BME280;62194;49.480;10.986;2023-01-29T00:25:58;99398.41;;;-2.69;68.88
55351;BME280;62194;49.480;10.986;2023-01-29T00:26:04;99400.59;;;-2.66;69.01
55351;BME280;62194;49.480;10.986;2023-01-29T00:26:10;99404.69;;;-2.64;69.08
55351;BME280;62194;49.480;10.986;2023-01-29T00:26:16;99381.69;;;-2.76;68.97
55351;BME280;62194;49.480;10.986;2023-01-29T00:26:21;99384.94;;;-2.74;69.19
55351;BME280;62194;49.480;10.986;2023-01-29T00:26:27;99396.88;;;-2.65;69.26
55351;BME280;62194;49.480;10.986;2023-01-29T00:26:32;99407.81;;;-2.67;69.28
55351;BME280;62194;49.480;10.986;2023-01-29T00:26:38;99393.06;;;-2.69;69.20
55351;BME280;62194;49.480;10.986;2023-01-29T00:26:44;99401.88;;;-2.69;69.42
55351;BME280;62194;49.480;10.986;2023-01-29T00:26:49;99403.28;;;-2.66;69.28
55351;BME280;62194;49.480;10.986;2023-01-29T00:26:54;99401.41;;;-2.66;69.48
55351;BME280;62194;49.480;10.986;2023-01-29T00:27:00;99402.22;;;-2.65;69.25
55351;BME280;62194;49.480;10.986;2023-01-29T00:27:05;99389.59;;;-2.70;69.11
55351;BME280;62194;49.480;10.986;2023-01-29T00:27:10;99401.22;;;-2.64;69.19
55351;BME280;62194;49.480;10.986;2023-01-29T00:27:15;99395.53;;;-2.68;69.20
55351;BME280;62194;49.480;10.986;2023-01-29T00:27:21;99402.00;;;-2.64;69.24
55351;BME280;62194;49.480;10.986;2023-01-29T00:27:26;99404.44;;;-2.62;69.42
55351;BME280;62194;49.480;10.986;2023-01-29T00:27:31;99402.38;;;-2.60;69.26
55351;BME280;62194;49.480;10.986;2023-01-29T00:27:36;99403.19;;;-2.60;69.26
55351;BME280;62194;49.480;10.986;2023-01-29T00:27:42;99403.19;;;-2.60;69.31
55351;BME280;62194;49.480;10.986;2023-01-29T00:27:48;99402.97;;;-2.58;69.14
55351;BME280;62194;49.480;10.986;2023-01-29T00:27:54;99385.84;;;-2.69;69.35
55351;BME280;62194;49.480;10.986;2023-01-29T00:27:59;99402.97;;;-2.58;69.59
55351;BME280;62194;49.480;10.986;2023-01-29T00:28:04;99402.97;;;-2.58;69.50
55351;BME280;62194;49.480;10.986;2023-01-29T00:28:10;99394.59;;;-2.62;69.31
55351;BME280;62194;49.480;10.986;2023-01-29T00:28:16;99385.66;;;-2.67;69.22
55351;BME280;62194;49.480;10.986;2023-01-29T00:28:21;99396.22;;;-2.61;69.42
55351;BME280;62194;49.480;10.986;2023-01-29T00:28:27;99402.00;;;-2.52;69.26
55351;BME280;62194;49.480;10.986;2023-01-29T00:28:32;99389.72;;;-2.53;69.27
55351;BME280;62194;49.480;10.986;2023-01-29T00:28:37;99393.78;;;-2.50;69.11
55351;BME280;62194;49.480;10.986;2023-01-29T00:28:43;99399.34;;;-2.52;68.57
55351;BME280;62194;49.480;10.986;2023-01-29T00:28:48;99385.44;;;-2.54;68.88
55351;BME280;62194;49.480;10.986;2023-01-29T00:28:54;99397.63;;;-2.46;68.83
55351;BME280;62194;49.480;10.986;2023-01-29T00:29:01;99394.38;;;-2.48;68.98
55351;BME280;62194;49.480;10.986;2023-01-29T00:29:10;99397.84;;;-2.48;68.82
55351;BME280;62194;49.480;10.986;2023-01-29T00:29:18;99384.84;;;-2.56;69.23
55351;BME280;62194;49.480;10.986;2023-01-29T00:29:25;99381.59;;;-2.58;69.27
55351;BME280;62194;49.480;10.986;2023-01-29T00:29:31;99387.28;;;-2.54;69.25
55351;BME280;62194;49.480;10.986;2023-01-29T00:29:36;99394.13;;;-2.47;69.22
55351;BME280;62194;49.480;10.986;2023-01-29T00:29:41;99392.72;;;-2.49;69.39
55351;BME280;62194;49.480;10.986;2023-01-29T00:29:47;99394.38;;;-2.48;69.09
55351;BME280;62194;49.480;10.986;2023-01-29T00:30:12;99390.16;;;-2.56;69.32
55351;BME280;62194;49.480;10.986;2023-01-29T00:30:22;99380.53;;;-2.57;68.96
55351;BME280;62194;49.480;10.986;2023-01-29T00:30:28;99387.97;;;-2.47;69.26